sensor_id;sensor_type;location;lat;lon;timestamp;temperature;humidity
71304;DHT22;59091;47.446;19.148;2022-11-02T00:02:06;12.83;77.89
71304;DHT22;59091;47.446;19.148;2022-11-02T00:04:32;12.82;77.84
71304;DHT22;59091;47.446;19.148;2022-11-02T00:06:57;12.78;77.91
71304;DHT22;59091;47.446;19.148;2022-11-02T00:09:22;12.78;77.74
71304;DHT22;59091;47.446;19.148;2022-11-02T00:11:48;12.75;77.80
71304;DHT22;59091;47.446;19.148;2022-11-02T00:14:13;12.72;77.73
71304;DHT22;59091;47.446;19.148;2022-11-02T00:16:39;12.65;77.78
71304;DHT22;59091;47.446;19.148;2022-11-02T00:19:05;12.62;77.64
71304;DHT22;59091;47.446;19.148;2022-11-02T00:21:31;12.58;77.75
71304;DHT22;59091;47.446;19.148;2022-11-02T00:23:57;12.52;77.76
71304;DHT22;59091;47.446;19.148;2022-11-02T00:26:24;12.48;77.54
71304;DHT22;59091;47.446;19.148;2022-11-02T00:28:50;12.45;77.80
71304;DHT22;59091;47.446;19.148;2022-11-02T00:31:15;12.38;77.87
71304;DHT22;59091;47.446;19.148;2022-11-02T00:33:41;12.34;77.75
71304;DHT22;59091;47.446;19.148;2022-11-02T00:36:06;12.31;78.13
71304;DHT22;59091;47.446;19.148;2022-11-02T00:38:32;12.28;78.23
71304;DHT22;59091;47.446;19.148;2022-11-02T00:40:58;12.24;78.46
71304;DHT22;59091;47.446;19.148;2022-11-02T00:43:23;12.22;78.39
71304;DHT22;59091;47.446;19.148;2022-11-02T00:45:49;12.21;78.43
71304;DHT22;59091;47.446;19.148;2022-11-02T00:48:14;12.18;78.45
71304;DHT22;59091;47.446;19.148;2022-11-02T00:50:40;12.16;78.24
71304;DHT22;59091;47.446;19.148;2022-11-02T00:53:05;12.08;78.57
71304;DHT22;59091;47.446;19.148;2022-11-02T00:55:30;12.11;78.71
71304;DHT22;59091;47.446;19.148;2022-11-02T00:57:56;12.08;78.62
71304;DHT22;59091;47.446;19.148;2022-11-02T01:00:21;12.10;78.52
71304;DHT22;59091;47.446;19.148;2022-11-02T01:02:47;12.11;78.61
71304;DHT22;59091;47.446;19.148;2022-11-02T01:05:12;12.13;78.80
71304;DHT22;59091;47.446;19.148;2022-11-02T01:07:38;12.08;78.87
71304;DHT22;59091;47.446;19.148;2022-11-02T01:10:05;12.08;78.87
71304;DHT22;59091;47.446;19.148;2022-11-02T01:12:30;12.11;78.90
71304;DHT22;59091;47.446;19.148;2022-11-02T01:14:56;12.08;78.91
71304;DHT22;59091;47.446;19.148;2022-11-02T01:17:21;12.08;79.06
71304;DHT22;59091;47.446;19.148;2022-11-02T01:19:49;12.05;78.96
71304;DHT22;59091;47.446;19.148;2022-11-02T01:22:14;12.05;78.95
71304;DHT22;59091;47.446;19.148;2022-11-02T01:24:40;12.01;78.95
71304;DHT22;59091;47.446;19.148;2022-11-02T01:27:05;12.01;78.86
71304;DHT22;59091;47.446;19.148;2022-11-02T01:29:30;12.02;79.05
71304;DHT22;59091;47.446;19.148;2022-11-02T01:31:56;11.98;79.12
71304;DHT22;59091;47.446;19.148;2022-11-02T01:34:21;11.94;79.16
71304;DHT22;59091;47.446;19.148;2022-11-02T01:36:47;11.95;79.23
71304;DHT22;59091;47.446;19.148;2022-11-02T01:39:13;11.98;79.13
71304;DHT22;59091;47.446;19.148;2022-11-02T01:41:40;11.95;79.18
71304;DHT22;59091;47.446;19.148;2022-11-02T01:44:25;11.91;79.42
71304;DHT22;59091;47.446;19.148;2022-11-02T01:46:53;11.95;79.50
71304;DHT22;59091;47.446;19.148;2022-11-02T01:49:20;11.98;79.50
71304;DHT22;59091;47.446;19.148;2022-11-02T01:51:54;11.97;79.70
71304;DHT22;59091;47.446;19.148;2022-11-02T01:54:26;11.97;79.73
71304;DHT22;59091;47.446;19.148;2022-11-02T01:57:00;11.94;79.83
71304;DHT22;59091;47.446;19.148;2022-11-02T01:59:44;12.00;79.77
71304;DHT22;59091;47.446;19.148;2022-11-02T02:02:17;11.97;79.91
71304;DHT22;59091;47.446;19.148;2022-11-02T02:04:47;12.00;80.01
71304;DHT22;59091;47.446;19.148;2022-11-02T02:07:13;12.01;80.13
71304;DHT22;59091;47.446;19.148;2022-11-02T02:09:40;12.07;80.40
71304;DHT22;59091;47.446;19.148;2022-11-02T02:12:06;12.21;82.66
71304;DHT22;59091;47.446;19.148;2022-11-02T02:14:32;12.18;80.95
71304;DHT22;59091;47.446;19.148;2022-11-02T02:20:27;12.07;79.76
71304;DHT22;59091;47.446;19.148;2022-11-02T02:28:35;12.05;80.16
71304;DHT22;59091;47.446;19.148;2022-11-02T02:31:10;12.11;80.09
71304;DHT22;59091;47.446;19.148;2022-11-02T02:36:14;12.13;80.03
71304;DHT22;59091;47.446;19.148;2022-11-02T02:38:48;12.14;79.93
71304;DHT22;59091;47.446;19.148;2022-11-02T02:41:37;12.13;79.93
71304;DHT22;59091;47.446;19.148;2022-11-02T02:44:07;12.11;80.19
71304;DHT22;59091;47.446;19.148;2022-11-02T02:49:10;12.13;80.18
71304;DHT22;59091;47.446;19.148;2022-11-02T02:51:38;12.18;80.16
71304;DHT22;59091;47.446;19.148;2022-11-02T02:54:08;12.20;80.14
71304;DHT22;59091;47.446;19.148;2022-11-02T02:56:41;12.18;80.27
71304;DHT22;59091;47.446;19.148;2022-11-02T02:59:14;12.20;80.19
71304;DHT22;59091;47.446;19.148;2022-11-02T03:01:41;12.17;80.37
71304;DHT22;59091;47.446;19.148;2022-11-02T03:04:11;12.21;80.24
71304;DHT22;59091;47.446;19.148;2022-11-02T03:06:38;12.20;80.37
71304;DHT22;59091;47.446;19.148;2022-11-02T03:09:26;12.20;80.47
71304;DHT22;59091;47.446;19.148;2022-11-02T03:17:27;12.17;81.15
71304;DHT22;59091;47.446;19.148;2022-11-02T03:20:10;12.10;81.85
71304;DHT22;59091;47.446;19.148;2022-11-02T03:22:41;12.10;82.28
71304;DHT22;59091;47.446;19.148;2022-11-02T03:25:17;12.16;82.05
71304;DHT22;59091;47.446;19.148;2022-11-02T03:30:46;12.17;81.41
71304;DHT22;59091;47.446;19.148;2022-11-02T03:33:22;12.20;81.10
71304;DHT22;59091;47.446;19.148;2022-11-02T03:36:04;12.14;81.06
71304;DHT22;59091;47.446;19.148;2022-11-02T03:41:00;12.20;81.29
71304;DHT22;59091;47.446;19.148;2022-11-02T03:43:27;12.16;81.91
71304;DHT22;59091;47.446;19.148;2022-11-02T03:45:55;12.20;81.71
71304;DHT22;59091;47.446;19.148;2022-11-02T03:48:25;12.22;81.26
71304;DHT22;59091;47.446;19.148;2022-11-02T03:50:54;12.22;81.21
71304;DHT22;59091;47.446;19.148;2022-11-02T03:55:51;12.25;81.01
71304;DHT22;59091;47.446;19.148;2022-11-02T03:58:18;12.28;81.05
71304;DHT22;59091;47.446;19.148;2022-11-02T04:00:50;12.29;80.94
71304;DHT22;59091;47.446;19.148;2022-11-02T04:03:18;12.31;81.14
71304;DHT22;59091;47.446;19.148;2022-11-02T04:05:44;12.32;81.05
71304;DHT22;59091;47.446;19.148;2022-11-02T04:08:11;12.31;80.99
71304;DHT22;59091;47.446;19.148;2022-11-02T04:10:49;12.35;81.00
71304;DHT22;59091;47.446;19.148;2022-11-02T04:13:34;12.35;80.97
71304;DHT22;59091;47.446;19.148;2022-11-02T04:16:18;12.35;81.00
71304;DHT22;59091;47.446;19.148;2022-11-02T04:18:44;12.31;81.17
71304;DHT22;59091;47.446;19.148;2022-11-02T04:21:28;12.32;81.35
71304;DHT22;59091;47.446;19.148;2022-11-02T04:23:54;12.32;81.34
71304;DHT22;59091;47.446;19.148;2022-11-02T04:26:38;12.37;81.37
71304;DHT22;59091;47.446;19.148;2022-11-02T04:29:04;12.37;81.44
71304;DHT22;59091;47.446;19.148;2022-11-02T04:31:30;12.44;81.37
71304;DHT22;59091;47.446;19.148;2022-11-02T04:33:55;12.44;81.37
71304;DHT22;59091;47.446;19.148;2022-11-02T04:36:24;12.46;81.43
71304;DHT22;59091;47.446;19.148;2022-11-02T04:38:50;12.44;81.50
71304;DHT22;59091;47.446;19.148;2022-11-02T04:41:17;12.50;81.39
71304;DHT22;59091;47.446;19.148;2022-11-02T04:44:01;12.48;81.47
71304;DHT22;59091;47.446;19.148;2022-11-02T04:46:30;12.49;81.33
71304;DHT22;59091;47.446;19.148;2022-11-02T04:48:55;12.49;81.39
71304;DHT22;59091;47.446;19.148;2022-11-02T04:51:22;12.48;81.40
71304;DHT22;59091;47.446;19.148;2022-11-02T04:53:53;12.52;81.39
71304;DHT22;59091;47.446;19.148;2022-11-02T04:56:19;12.53;81.37
71304;DHT22;59091;47.446;19.148;2022-11-02T04:58:53;12.50;81.12
71304;DHT22;59091;47.446;19.148;2022-11-02T05:01:20;12.53;81.26
71304;DHT22;59091;47.446;19.148;2022-11-02T05:03:50;12.52;81.27
71304;DHT22;59091;47.446;19.148;2022-11-02T05:06:17;12.50;81.39
71304;DHT22;59091;47.446;19.148;2022-11-02T05:08:43;12.53;81.39
71304;DHT22;59091;47.446;19.148;2022-11-02T05:11:09;12.55;81.31
71304;DHT22;59091;47.446;19.148;2022-11-02T05:13:35;12.53;81.38
71304;DHT22;59091;47.446;19.148;2022-11-02T05:16:01;12.55;81.32
71304;DHT22;59091;47.446;19.148;2022-11-02T05:18:27;12.52;81.34
71304;DHT22;59091;47.446;19.148;2022-11-02T05:20:55;12.56;81.34
71304;DHT22;59091;47.446;19.148;2022-11-02T05:23:21;12.59;81.36
71304;DHT22;59091;47.446;19.148;2022-11-02T05:25:58;12.52;81.16
71304;DHT22;59091;47.446;19.148;2022-11-02T05:28:25;12.65;82.46
71304;DHT22;59091;47.446;19.148;2022-11-02T05:30:51;12.63;82.27
71304;DHT22;59091;47.446;19.148;2022-11-02T05:33:16;12.59;82.05
71304;DHT22;59091;47.446;19.148;2022-11-02T05:35:42;12.80;85.11
71304;DHT22;59091;47.446;19.148;2022-11-02T05:38:07;12.85;83.09
71304;DHT22;59091;47.446;19.148;2022-11-02T05:40:33;12.80;81.89
71304;DHT22;59091;47.446;19.148;2022-11-02T05:43:02;12.76;81.47
71304;DHT22;59091;47.446;19.148;2022-11-02T05:45:28;12.78;81.23
71304;DHT22;59091;47.446;19.148;2022-11-02T05:47:54;12.75;81.24
71304;DHT22;59091;47.446;19.148;2022-11-02T05:50:20;12.78;81.27
71304;DHT22;59091;47.446;19.148;2022-11-02T05:52:46;12.78;81.31
71304;DHT22;59091;47.446;19.148;2022-11-02T05:55:12;12.75;81.27
71304;DHT22;59091;47.446;19.148;2022-11-02T05:57:37;12.75;81.35
71304;DHT22;59091;47.446;19.148;2022-11-02T06:00:04;12.76;81.53
71304;DHT22;59091;47.446;19.148;2022-11-02T06:02:32;12.78;82.05
71304;DHT22;59091;47.446;19.148;2022-11-02T06:04:57;12.82;85.91
71304;DHT22;59091;47.446;19.148;2022-11-02T06:07:23;12.90;83.64
71304;DHT22;59091;47.446;19.148;2022-11-02T06:09:48;12.92;82.33
71304;DHT22;59091;47.446;19.148;2022-11-02T06:12:13;12.90;81.78
71304;DHT22;59091;47.446;19.148;2022-11-02T06:14:39;12.92;81.55
71304;DHT22;59091;47.446;19.148;2022-11-02T06:17:04;12.89;81.74
71304;DHT22;59091;47.446;19.148;2022-11-02T06:19:29;12.92;81.67
71304;DHT22;59091;47.446;19.148;2022-11-02T06:21:55;12.90;81.83
71304;DHT22;59091;47.446;19.148;2022-11-02T06:24:20;12.93;81.78
71304;DHT22;59091;47.446;19.148;2022-11-02T06:26:46;12.97;81.72
71304;DHT22;59091;47.446;19.148;2022-11-02T06:29:11;13.02;81.69
71304;DHT22;59091;47.446;19.148;2022-11-02T06:31:37;13.03;81.77
71304;DHT22;59091;47.446;19.148;2022-11-02T06:34:02;13.10;81.83
71304;DHT22;59091;47.446;19.148;2022-11-02T06:36:28;13.14;81.97
71304;DHT22;59091;47.446;19.148;2022-11-02T06:38:53;13.14;81.97
71304;DHT22;59091;47.446;19.148;2022-11-02T06:41:18;13.21;82.17
71304;DHT22;59091;47.446;19.148;2022-11-02T06:43:44;13.30;82.87
71304;DHT22;59091;47.446;19.148;2022-11-02T06:46:09;13.41;82.22
71304;DHT22;59091;47.446;19.148;2022-11-02T06:48:35;13.48;81.73
71304;DHT22;59091;47.446;19.148;2022-11-02T06:51:00;13.37;81.79
71304;DHT22;59091;47.446;19.148;2022-11-02T06:53:26;13.50;81.78
71304;DHT22;59091;47.446;19.148;2022-11-02T06:55:55;13.55;81.66
71304;DHT22;59091;47.446;19.148;2022-11-02T06:58:21;13.46;81.98
71304;DHT22;59091;47.446;19.148;2022-11-02T07:00:56;13.55;81.64
71304;DHT22;59091;47.446;19.148;2022-11-02T07:03:21;13.61;81.47
71304;DHT22;59091;47.446;19.148;2022-11-02T07:05:51;13.67;82.21
71304;DHT22;59091;47.446;19.148;2022-11-02T07:08:17;13.77;81.50
71304;DHT22;59091;47.446;19.148;2022-11-02T07:10:42;13.82;80.91
71304;DHT22;59091;47.446;19.148;2022-11-02T07:13:08;13.89;80.67
71304;DHT22;59091;47.446;19.148;2022-11-02T07:15:33;13.89;80.92
71304;DHT22;59091;47.446;19.148;2022-11-02T07:17:58;13.95;80.55
71304;DHT22;59091;47.446;19.148;2022-11-02T07:20:24;14.02;80.18
71304;DHT22;59091;47.446;19.148;2022-11-02T07:22:54;14.02;80.15
71304;DHT22;59091;47.446;19.148;2022-11-02T07:25:20;14.12;80.90
71304;DHT22;59091;47.446;19.148;2022-11-02T07:27:45;14.12;80.15
71304;DHT22;59091;47.446;19.148;2022-11-02T07:30:11;14.11;79.95
71304;DHT22;59091;47.446;19.148;2022-11-02T07:32:40;14.15;79.60
71304;DHT22;59091;47.446;19.148;2022-11-02T07:35:07;14.13;79.87
71304;DHT22;59091;47.446;19.148;2022-11-02T07:37:33;14.16;79.58
71304;DHT22;59091;47.446;19.148;2022-11-02T07:39:59;14.18;79.68
71304;DHT22;59091;47.446;19.148;2022-11-02T07:42:24;14.23;79.53
71304;DHT22;59091;47.446;19.148;2022-11-02T07:44:49;14.25;79.43
71304;DHT22;59091;47.446;19.148;2022-11-02T07:47:15;14.22;79.51
71304;DHT22;59091;47.446;19.148;2022-11-02T07:49:40;14.25;79.47
71304;DHT22;59091;47.446;19.148;2022-11-02T07:52:05;14.33;79.71
71304;DHT22;59091;47.446;19.148;2022-11-02T07:54:31;14.29;79.82
71304;DHT22;59091;47.446;19.148;2022-11-02T07:56:56;14.28;79.89
71304;DHT22;59091;47.446;19.148;2022-11-02T07:59:21;14.34;79.75
71304;DHT22;59091;47.446;19.148;2022-11-02T08:01:47;14.47;79.54
71304;DHT22;59091;47.446;19.148;2022-11-02T08:04:12;14.55;79.36
71304;DHT22;59091;47.446;19.148;2022-11-02T08:06:37;14.64;79.53
71304;DHT22;59091;47.446;19.148;2022-11-02T08:09:03;14.71;79.13
71304;DHT22;59091;47.446;19.148;2022-11-02T08:11:28;14.76;78.67
71304;DHT22;59091;47.446;19.148;2022-11-02T08:13:54;14.87;78.67
71304;DHT22;59091;47.446;19.148;2022-11-02T08:16:20;14.93;78.53
71304;DHT22;59091;47.446;19.148;2022-11-02T08:18:45;14.98;78.35
71304;DHT22;59091;47.446;19.148;2022-11-02T08:21:10;15.10;78.16
71304;DHT22;59091;47.446;19.148;2022-11-02T08:23:36;15.24;77.86
71304;DHT22;59091;47.446;19.148;2022-11-02T08:26:01;15.32;77.67
71304;DHT22;59091;47.446;19.148;2022-11-02T08:28:29;15.45;77.31
71304;DHT22;59091;47.446;19.148;2022-11-02T08:31:00;15.45;77.08
71304;DHT22;59091;47.446;19.148;2022-11-02T08:33:26;15.48;76.86
71304;DHT22;59091;47.446;19.148;2022-11-02T08:35:52;15.46;77.03
71304;DHT22;59091;47.446;19.148;2022-11-02T08:38:18;15.49;77.20
71304;DHT22;59091;47.446;19.148;2022-11-02T08:40:47;15.52;76.34
71304;DHT22;59091;47.446;19.148;2022-11-02T08:43:13;15.49;76.52
71304;DHT22;59091;47.446;19.148;2022-11-02T08:45:41;15.56;76.29
71304;DHT22;59091;47.446;19.148;2022-11-02T08:48:07;15.59;76.58
71304;DHT22;59091;47.446;19.148;2022-11-02T08:50:33;15.56;76.78
71304;DHT22;59091;47.446;19.148;2022-11-02T08:52:59;15.63;76.78
71304;DHT22;59091;47.446;19.148;2022-11-02T08:55:24;15.75;76.33
71304;DHT22;59091;47.446;19.148;2022-11-02T08:57:54;15.85;76.06
71304;DHT22;59091;47.446;19.148;2022-11-02T09:00:23;15.87;75.54
71304;DHT22;59091;47.446;19.148;2022-11-02T09:03:07;15.86;75.37
71304;DHT22;59091;47.446;19.148;2022-11-02T09:05:33;15.75;75.42
71304;DHT22;59091;47.446;19.148;2022-11-02T09:08:05;15.87;75.11
71304;DHT22;59091;47.446;19.148;2022-11-02T09:10:33;15.85;74.88
71304;DHT22;59091;47.446;19.148;2022-11-02T09:12:59;15.82;75.06
71304;DHT22;59091;47.446;19.148;2022-11-02T09:15:26;15.86;75.12
71304;DHT22;59091;47.446;19.148;2022-11-02T09:17:51;15.83;75.24
71304;DHT22;59091;47.446;19.148;2022-11-02T09:20:18;15.85;75.14
71304;DHT22;59091;47.446;19.148;2022-11-02T09:22:44;15.90;75.23
71304;DHT22;59091;47.446;19.148;2022-11-02T09:25:10;15.93;75.79
71304;DHT22;59091;47.446;19.148;2022-11-02T09:27:36;16.06;75.47
71304;DHT22;59091;47.446;19.148;2022-11-02T09:30:02;16.09;75.18
71304;DHT22;59091;47.446;19.148;2022-11-02T09:32:29;16.12;75.07
71304;DHT22;59091;47.446;19.148;2022-11-02T09:35:00;16.25;74.83
71304;DHT22;59091;47.446;19.148;2022-11-02T09:37:27;16.35;74.69
71304;DHT22;59091;47.446;19.148;2022-11-02T09:39:52;16.44;74.76
71304;DHT22;59091;47.446;19.148;2022-11-02T09:45:07;16.41;74.72
71304;DHT22;59091;47.446;19.148;2022-11-02T09:47:42;16.50;74.48
71304;DHT22;59091;47.446;19.148;2022-11-02T09:50:14;16.67;74.02
71304;DHT22;59091;47.446;19.148;2022-11-02T09:52:42;16.72;74.16
71304;DHT22;59091;47.446;19.148;2022-11-02T09:55:15;16.72;73.88
71304;DHT22;59091;47.446;19.148;2022-11-02T09:57:44;16.78;73.80
71304;DHT22;59091;47.446;19.148;2022-11-02T10:00:12;16.68;73.68
71304;DHT22;59091;47.446;19.148;2022-11-02T10:05:49;16.71;73.36
71304;DHT22;59091;47.446;19.148;2022-11-02T10:08:27;16.65;73.77
71304;DHT22;59091;47.446;19.148;2022-11-02T10:13:46;16.68;73.98
71304;DHT22;59091;47.446;19.148;2022-11-02T10:16:14;16.65;73.86
71304;DHT22;59091;47.446;19.148;2022-11-02T10:18:43;16.71;73.59
71304;DHT22;59091;47.446;19.148;2022-11-02T10:21:19;16.76;73.39
71304;DHT22;59091;47.446;19.148;2022-11-02T10:23:51;16.76;73.38
71304;DHT22;59091;47.446;19.148;2022-11-02T10:28:53;16.75;73.68
71304;DHT22;59091;47.446;19.148;2022-11-02T10:31:32;16.75;73.79
71304;DHT22;59091;47.446;19.148;2022-11-02T10:34:27;16.75;73.71
71304;DHT22;59091;47.446;19.148;2022-11-02T10:46:05;16.91;73.87
71304;DHT22;59091;47.446;19.148;2022-11-02T10:49:13;16.89;73.39
71304;DHT22;59091;47.446;19.148;2022-11-02T10:51:42;16.98;73.64
71304;DHT22;59091;47.446;19.148;2022-11-02T10:54:12;17.02;73.46
71304;DHT22;59091;47.446;19.148;2022-11-02T10:56:39;17.01;73.67
71304;DHT22;59091;47.446;19.148;2022-11-02T10:59:17;16.99;73.41
71304;DHT22;59091;47.446;19.148;2022-11-02T11:04:32;17.08;73.56
71304;DHT22;59091;47.446;19.148;2022-11-02T11:07:11;17.11;73.47
71304;DHT22;59091;47.446;19.148;2022-11-02T11:09:45;17.09;73.97
71304;DHT22;59091;47.446;19.148;2022-11-02T11:12:18;17.05;74.03
71304;DHT22;59091;47.446;19.148;2022-11-02T11:14:54;17.26;73.65
71304;DHT22;59091;47.446;19.148;2022-11-02T11:17:27;17.40;73.13
71304;DHT22;59091;47.446;19.148;2022-11-02T11:19:55;17.50;73.08
71304;DHT22;59091;47.446;19.148;2022-11-02T11:25:25;17.73;72.20
71304;DHT22;59091;47.446;19.148;2022-11-02T11:27:55;17.90;71.95
71304;DHT22;59091;47.446;19.148;2022-11-02T11:30:26;18.08;71.52
71304;DHT22;59091;47.446;19.148;2022-11-02T11:32:52;18.22;70.74
71304;DHT22;59091;47.446;19.148;2022-11-02T11:35:19;18.35;70.64
71304;DHT22;59091;47.446;19.148;2022-11-02T11:37:50;18.52;69.88
71304;DHT22;59091;47.446;19.148;2022-11-02T11:40:19;18.66;70.05
71304;DHT22;59091;47.446;19.148;2022-11-02T11:42:47;18.75;69.13
71304;DHT22;59091;47.446;19.148;2022-11-02T11:47:55;18.90;67.72
71304;DHT22;59091;47.446;19.148;2022-11-02T11:50:21;18.99;67.49
71304;DHT22;59091;47.446;19.148;2022-11-02T11:53:07;18.97;66.42
71304;DHT22;59091;47.446;19.148;2022-11-02T11:55:33;19.06;67.45
71304;DHT22;59091;47.446;19.148;2022-11-02T12:00:36;19.31;66.96
71304;DHT22;59091;47.446;19.148;2022-11-02T12:03:07;19.27;65.85
71304;DHT22;59091;47.446;19.148;2022-11-02T12:11:19;19.44;66.03
71304;DHT22;59091;47.446;19.148;2022-11-02T12:14:02;19.55;65.60
71304;DHT22;59091;47.446;19.148;2022-11-02T12:24:54;19.48;66.61
71304;DHT22;59091;47.446;19.148;2022-11-02T12:30:17;19.51;66.89
71304;DHT22;59091;47.446;19.148;2022-11-02T12:36:00;19.68;66.64
71304;DHT22;59091;47.446;19.148;2022-11-02T12:41:40;19.75;66.45
71304;DHT22;59091;47.446;19.148;2022-11-02T12:49:30;20.16;68.64
71304;DHT22;59091;47.446;19.148;2022-11-02T12:54:47;20.20;65.76
71304;DHT22;59091;47.446;19.148;2022-11-02T12:57:16;20.25;66.18
71304;DHT22;59091;47.446;19.148;2022-11-02T12:59:43;20.23;65.53
71304;DHT22;59091;47.446;19.148;2022-11-02T13:05:05;20.09;65.49
71304;DHT22;59091;47.446;19.148;2022-11-02T13:07:46;20.18;65.48
71304;DHT22;59091;47.446;19.148;2022-11-02T13:10:19;20.19;65.10
71304;DHT22;59091;47.446;19.148;2022-11-02T13:12:47;20.13;65.22
71304;DHT22;59091;47.446;19.148;2022-11-02T13:15:17;20.09;65.38
71304;DHT22;59091;47.446;19.148;2022-11-02T13:17:46;20.06;65.42
71304;DHT22;59091;47.446;19.148;2022-11-02T13:20:14;19.98;65.85
71304;DHT22;59091;47.446;19.148;2022-11-02T13:22:42;19.92;65.98
71304;DHT22;59091;47.446;19.148;2022-11-02T13:25:18;19.81;66.34
71304;DHT22;59091;47.446;19.148;2022-11-02T13:27:57;19.68;66.89
71304;DHT22;59091;47.446;19.148;2022-11-02T13:30:25;19.62;67.18
71304;DHT22;59091;47.446;19.148;2022-11-02T13:33:11;19.51;67.30
71304;DHT22;59091;47.446;19.148;2022-11-02T13:35:39;19.43;67.61
71304;DHT22;59091;47.446;19.148;2022-11-02T13:40:43;19.26;67.86
71304;DHT22;59091;47.446;19.148;2022-11-02T13:48:35;19.03;68.63
71304;DHT22;59091;47.446;19.148;2022-11-02T13:56:54;18.83;69.63
71304;DHT22;59091;47.446;19.148;2022-11-02T13:59:28;18.76;69.92
71304;DHT22;59091;47.446;19.148;2022-11-02T14:01:54;18.70;70.59
71304;DHT22;59091;47.446;19.148;2022-11-02T14:04:20;18.66;70.49
71304;DHT22;59091;47.446;19.148;2022-11-02T14:07:01;18.58;70.71
71304;DHT22;59091;47.446;19.148;2022-11-02T14:09:36;18.55;71.04
71304;DHT22;59091;47.446;19.148;2022-11-02T14:14:36;18.41;71.26
71304;DHT22;59091;47.446;19.148;2022-11-02T14:22:11;18.22;72.10
71304;DHT22;59091;47.446;19.148;2022-11-02T14:27:03;18.11;72.67
71304;DHT22;59091;47.446;19.148;2022-11-02T14:29:49;18.02;72.76
71304;DHT22;59091;47.446;19.148;2022-11-02T14:38:00;17.81;73.39
71304;DHT22;59091;47.446;19.148;2022-11-02T14:40:38;17.73;73.57
71304;DHT22;59091;47.446;19.148;2022-11-02T14:48:26;17.46;74.94
71304;DHT22;59091;47.446;19.148;2022-11-02T14:51:06;17.42;74.86
71304;DHT22;59091;47.446;19.148;2022-11-02T14:53:36;17.39;74.47
71304;DHT22;59091;47.446;19.148;2022-11-02T14:56:01;17.39;72.66
71304;DHT22;59091;47.446;19.148;2022-11-02T14:58:38;17.35;71.85
71304;DHT22;59091;47.446;19.148;2022-11-02T15:01:05;17.39;70.83
71304;DHT22;59091;47.446;19.148;2022-11-02T15:03:38;17.32;70.91
71304;DHT22;59091;47.446;19.148;2022-11-02T15:17:00;16.99;72.77
71304;DHT22;59091;47.446;19.148;2022-11-02T15:19:46;17.02;72.76
71304;DHT22;59091;47.446;19.148;2022-11-02T15:22:50;16.98;73.91
71304;DHT22;59091;47.446;19.148;2022-11-02T15:25:24;16.99;72.62
71304;DHT22;59091;47.446;19.148;2022-11-02T15:27:53;16.96;70.96
71304;DHT22;59091;47.446;19.148;2022-11-02T15:30:21;16.96;69.41
71304;DHT22;59091;47.446;19.148;2022-11-02T15:32:51;16.94;69.96
71304;DHT22;59091;47.446;19.148;2022-11-02T15:35:22;16.92;68.14
71304;DHT22;59091;47.446;19.148;2022-11-02T15:37:55;16.94;68.06
71304;DHT22;59091;47.446;19.148;2022-11-02T15:40:27;16.94;67.47
71304;DHT22;59091;47.446;19.148;2022-11-02T15:43:09;16.99;67.22
71304;DHT22;59091;47.446;19.148;2022-11-02T15:46:12;16.94;69.26
71304;DHT22;59091;47.446;19.148;2022-11-02T15:48:57;16.89;70.37
71304;DHT22;59091;47.446;19.148;2022-11-02T15:52:07;16.89;70.98
71304;DHT22;59091;47.446;19.148;2022-11-02T15:57:27;16.74;71.19
71304;DHT22;59091;47.446;19.148;2022-11-02T16:00:32;16.65;71.83
71304;DHT22;59091;47.446;19.148;2022-11-02T16:03:07;16.60;72.06
71304;DHT22;59091;47.446;19.148;2022-11-02T16:05:44;16.54;72.16
71304;DHT22;59091;47.446;19.148;2022-11-02T16:08:29;16.47;72.33
71304;DHT22;59091;47.446;19.148;2022-11-02T16:13:32;16.34;72.80
71304;DHT22;59091;47.446;19.148;2022-11-02T16:16:05;16.24;72.87
71304;DHT22;59091;47.446;19.148;2022-11-02T16:18:35;16.20;73.04
71304;DHT22;59091;47.446;19.148;2022-11-02T16:21:02;16.12;73.15
71304;DHT22;59091;47.446;19.148;2022-11-02T16:23:30;16.02;73.17
71304;DHT22;59091;47.446;19.148;2022-11-02T16:25:57;15.94;73.37
71304;DHT22;59091;47.446;19.148;2022-11-02T16:28:31;15.85;73.31
71304;DHT22;59091;47.446;19.148;2022-11-02T16:31:07;15.75;73.43
71304;DHT22;59091;47.446;19.148;2022-11-02T16:33:39;15.63;73.80
71304;DHT22;59091;47.446;19.148;2022-11-02T16:36:08;15.65;76.77
71304;DHT22;59091;47.446;19.148;2022-11-02T16:38:35;15.55;74.46
71304;DHT22;59091;47.446;19.148;2022-11-02T16:41:02;15.51;74.20
71304;DHT22;59091;47.446;19.148;2022-11-02T16:43:31;15.43;74.30
71304;DHT22;59091;47.446;19.148;2022-11-02T16:46:01;15.38;74.18
71304;DHT22;59091;47.446;19.148;2022-11-02T16:48:30;15.31;74.33
71304;DHT22;59091;47.446;19.148;2022-11-02T16:50:59;15.22;74.32
71304;DHT22;59091;47.446;19.148;2022-11-02T16:53:27;15.18;74.32
71304;DHT22;59091;47.446;19.148;2022-11-02T16:55:54;15.12;74.19
71304;DHT22;59091;47.446;19.148;2022-11-02T16:58:26;15.04;74.49
71304;DHT22;59091;47.446;19.148;2022-11-02T17:01:00;15.00;74.42
71304;DHT22;59091;47.446;19.148;2022-11-02T17:03:32;14.94;74.48
71304;DHT22;59091;47.446;19.148;2022-11-02T17:06:02;14.90;74.61
71304;DHT22;59091;47.446;19.148;2022-11-02T17:08:31;14.83;74.82
71304;DHT22;59091;47.446;19.148;2022-11-02T17:11:00;14.81;74.89
71304;DHT22;59091;47.446;19.148;2022-11-02T17:13:31;14.71;74.97
71304;DHT22;59091;47.446;19.148;2022-11-02T17:16:07;14.62;75.07
71304;DHT22;59091;47.446;19.148;2022-11-02T17:18:34;14.62;75.15
71304;DHT22;59091;47.446;19.148;2022-11-02T17:23:46;14.50;75.15
71304;DHT22;59091;47.446;19.148;2022-11-02T17:26:34;14.44;75.20
71304;DHT22;59091;47.446;19.148;2022-11-02T17:31:56;14.36;75.43
71304;DHT22;59091;47.446;19.148;2022-11-02T17:34:24;14.34;75.49
71304;DHT22;59091;47.446;19.148;2022-11-02T17:36:50;14.29;75.84
71304;DHT22;59091;47.446;19.148;2022-11-02T17:39:18;14.26;75.75
71304;DHT22;59091;47.446;19.148;2022-11-02T17:41:46;14.22;75.91
71304;DHT22;59091;47.446;19.148;2022-11-02T17:44:32;14.15;76.11
71304;DHT22;59091;47.446;19.148;2022-11-02T17:46:58;14.13;76.10
71304;DHT22;59091;47.446;19.148;2022-11-02T17:49:23;14.13;77.77
71304;DHT22;59091;47.446;19.148;2022-11-02T17:51:48;14.21;78.65
71304;DHT22;59091;47.446;19.148;2022-11-02T17:54:14;14.16;76.75
71304;DHT22;59091;47.446;19.148;2022-11-02T17:56:40;14.11;76.32
71304;DHT22;59091;47.446;19.148;2022-11-02T17:59:05;14.11;76.24
71304;DHT22;59091;47.446;19.148;2022-11-02T18:01:31;14.04;76.24